sensor_id;sensor_type;location;lat;lon;timestamp;pressure;altitude;pressure_sealevel;temperature;humidity
39265;BME280;42646;51.910;7.724;2023-01-28T00:00:52;102231.59;;;2.03;90.32
39265;BME280;42646;51.910;7.724;2023-01-28T00:03:20;102229.06;;;2.00;90.22
39265;BME280;42646;51.910;7.724;2023-01-28T00:05:48;102236.06;;;2.00;89.73
39265;BME280;42646;51.910;7.724;2023-01-28T00:08:16;102235.25;;;1.98;89.13
39265;BME280;42646;51.910;7.724;2023-01-28T00:10:43;102236.16;;;1.97;89.27
39265;BME280;42646;51.910;7.724;2023-01-28T00:13:12;102243.19;;;1.96;89.17
39265;BME280;42646;51.910;7.724;2023-01-28T00:15:42;102249.31;;;1.95;88.85
39265;BME280;42646;51.910;7.724;2023-01-28T00:18:09;102243.22;;;1.95;89.28
39265;BME280;42646;51.910;7.724;2023-01-28T00:20:37;102250.22;;;1.94;89.16
39265;BME280;42646;51.910;7.724;2023-01-28T00:23:05;102237.97;;;1.95;89.63
39265;BME280;42646;51.910;7.724;2023-01-28T00:25:33;102242.34;;;1.94;89.82
39265;BME280;42646;51.910;7.724;2023-01-28T00:28:01;102242.34;;;1.94;90.37
39265;BME280;42646;51.910;7.724;2023-01-28T00:30:28;102237.09;;;1.94;90.51
39265;BME280;42646;51.910;7.724;2023-01-28T00:32:57;102234.59;;;1.91;90.55
39265;BME280;42646;51.910;7.724;2023-01-28T00:35:25;102231.97;;;1.91;90.41
39265;BME280;42646;51.910;7.724;2023-01-28T00:37:55;102231.09;;;1.91;90.50
39265;BME280;42646;51.910;7.724;2023-01-28T00:40:24;102231.09;;;1.91;90.12
39265;BME280;42646;51.910;7.724;2023-01-28T00:42:51;102241.63;;;1.89;89.76
39265;BME280;42646;51.910;7.724;2023-01-28T00:45:19;102244.28;;;1.87;89.74
39265;BME280;42646;51.910;7.724;2023-01-28T00:47:48;102252.22;;;1.86;89.98
39265;BME280;42646;51.910;7.724;2023-01-28T00:50:19;102244.34;;;1.86;90.17
39265;BME280;42646;51.910;7.724;2023-01-28T00:52:47;102252.22;;;1.86;90.14
39265;BME280;42646;51.910;7.724;2023-01-28T00:55:16;102245.25;;;1.85;90.65
39265;BME280;42646;51.910;7.724;2023-01-28T00:57:44;102247.88;;;1.85;90.66
39265;BME280;42646;51.910;7.724;2023-01-28T01:00:13;102237.44;;;1.82;89.88
39265;BME280;42646;51.910;7.724;2023-01-28T01:02:44;102244.69;;;1.74;89.44
39265;BME280;42646;51.910;7.724;2023-01-28T01:05:12;102239.50;;;1.72;89.06
39265;BME280;42646;51.910;7.724;2023-01-28T01:07:42;102239.50;;;1.71;88.33
39265;BME280;42646;51.910;7.724;2023-01-28T01:10:12;102252.63;;;1.71;88.15
39265;BME280;42646;51.910;7.724;2023-01-28T01:12:40;102252.63;;;1.72;88.13
39265;BME280;42646;51.910;7.724;2023-01-28T01:15:09;102256.94;;;1.73;88.57
39265;BME280;42646;51.910;7.724;2023-01-28T01:17:38;102257.84;;;1.72;88.95
39265;BME280;42646;51.910;7.724;2023-01-28T01:20:08;102253.50;;;1.71;89.45
39265;BME280;42646;51.910;7.724;2023-01-28T01:22:36;102252.63;;;1.72;89.53
39265;BME280;42646;51.910;7.724;2023-01-28T01:25:06;102257.84;;;1.72;89.41
39265;BME280;42646;51.910;7.724;2023-01-28T01:27:34;102257.84;;;1.72;89.64
39265;BME280;42646;51.910;7.724;2023-01-28T01:30:03;102259.66;;;1.70;90.24
39265;BME280;42646;51.910;7.724;2023-01-28T01:32:32;102258.72;;;1.71;90.11
39265;BME280;42646;51.910;7.724;2023-01-28T01:35:00;102259.66;;;1.70;90.45
39265;BME280;42646;51.910;7.724;2023-01-28T01:37:28;102260.50;;;1.71;90.53
39265;BME280;42646;51.910;7.724;2023-01-28T01:40:21;102259.69;;;1.69;90.98
39265;BME280;42646;51.910;7.724;2023-01-28T01:42:53;102258.78;;;1.70;90.84
39265;BME280;42646;51.910;7.724;2023-01-28T01:45:21;102261.47;;;1.68;91.18
39265;BME280;42646;51.910;7.724;2023-01-28T01:48:17;102263.22;;;1.68;91.22
39265;BME280;42646;51.910;7.724;2023-01-28T01:50:50;102261.47;;;1.68;91.07
39265;BME280;42646;51.910;7.724;2023-01-28T01:53:22;102256.28;;;1.65;90.95
39265;BME280;42646;51.910;7.724;2023-01-28T01:55:59;102258.91;;;1.65;90.53
39265;BME280;42646;51.910;7.724;2023-01-28T01:58:31;102266.81;;;1.64;90.18
39265;BME280;42646;51.910;7.724;2023-01-28T02:01:00;102263.41;;;1.60;89.81
39265;BME280;42646;51.910;7.724;2023-01-28T02:03:33;102260.84;;;1.58;89.51
39265;BME280;42646;51.910;7.724;2023-01-28T02:06:04;102271.28;;;1.60;89.51
39265;BME280;42646;51.910;7.724;2023-01-28T02:08:32;102261.69;;;1.59;89.83
39265;BME280;42646;51.910;7.724;2023-01-28T02:11:08;102273.03;;;1.59;90.12
39265;BME280;42646;51.910;7.724;2023-01-28T02:13:41;102272.22;;;1.57;90.30
39265;BME280;42646;51.910;7.724;2023-01-28T02:16:12;102273.94;;;1.58;90.26
39265;BME280;42646;51.910;7.724;2023-01-28T02:18:40;102275.75;;;1.56;89.77
39265;BME280;42646;51.910;7.724;2023-01-28T02:24:33;102267.91;;;1.56;89.01
39265;BME280;42646;51.910;7.724;2023-01-28T02:27:25;102270.50;;;1.56;89.12
39265;BME280;42646;51.910;7.724;2023-01-28T02:29:58;102267.03;;;1.56;89.00
39265;BME280;42646;51.910;7.724;2023-01-28T02:32:35;102273.19;;;1.55;89.16
39265;BME280;42646;51.910;7.724;2023-01-28T02:35:11;102268.81;;;1.54;88.97
39265;BME280;42646;51.910;7.724;2023-01-28T02:37:46;102266.19;;;1.54;89.75
39265;BME280;42646;51.910;7.724;2023-01-28T02:40:19;102273.22;;;1.53;89.94
39265;BME280;42646;51.910;7.724;2023-01-28T02:42:50;102274.97;;;1.53;90.14
39265;BME280;42646;51.910;7.724;2023-01-28T02:45:30;102269.72;;;1.53;90.37
39265;BME280;42646;51.910;7.724;2023-01-28T02:48:21;102266.28;;;1.51;90.23
39265;BME280;42646;51.910;7.724;2023-01-28T02:51:17;102261.97;;;1.50;89.98
39265;BME280;42646;51.910;7.724;2023-01-28T02:53:55;102265.44;;;1.50;89.85
39265;BME280;42646;51.910;7.724;2023-01-28T02:56:29;102267.19;;;1.50;89.85
39265;BME280;42646;51.910;7.724;2023-01-28T02:59:07;102269.88;;;1.48;89.36
39265;BME280;42646;51.910;7.724;2023-01-28T03:02:00;102274.28;;;1.46;88.91
39265;BME280;42646;51.910;7.724;2023-01-28T03:04:33;102270.78;;;1.46;89.15
39265;BME280;42646;51.910;7.724;2023-01-28T03:07:06;102262.13;;;1.44;88.92
39265;BME280;42646;51.910;7.724;2023-01-28T03:09:38;102256.88;;;1.44;88.66
39265;BME280;42646;51.910;7.724;2023-01-28T03:12:31;102259.50;;;1.44;88.95
39265;BME280;42646;51.910;7.724;2023-01-28T03:15:46;102261.25;;;1.43;89.23
39265;BME280;42646;51.910;7.724;2023-01-28T03:18:43;102253.41;;;1.43;89.25
39265;BME280;42646;51.910;7.724;2023-01-28T03:21:30;102253.50;;;1.39;89.86
39265;BME280;42646;51.910;7.724;2023-01-28T03:24:20;102256.03;;;1.42;89.69
39265;BME280;42646;51.910;7.724;2023-01-28T03:27:11;102255.22;;;1.40;89.54
39265;BME280;42646;51.910;7.724;2023-01-28T03:30:08;102265.81;;;1.37;89.34
39265;BME280;42646;51.910;7.724;2023-01-28T03:32:57;102274.59;;;1.34;88.75
39265;BME280;42646;51.910;7.724;2023-01-28T03:35:49;102263.34;;;1.30;88.76
39265;BME280;42646;51.910;7.724;2023-01-28T03:38:35;102273.00;;;1.28;89.09
39265;BME280;42646;51.910;7.724;2023-01-28T03:41:11;102272.09;;;1.29;88.86
39265;BME280;42646;51.910;7.724;2023-01-28T03:43:39;102266.88;;;1.28;88.85
39265;BME280;42646;51.910;7.724;2023-01-28T03:46:08;102264.31;;;1.26;89.25
39265;BME280;42646;51.910;7.724;2023-01-28T03:48:36;102269.56;;;1.26;89.30
39265;BME280;42646;51.910;7.724;2023-01-28T03:51:07;102267.78;;;1.27;89.73
39265;BME280;42646;51.910;7.724;2023-01-28T03:53:36;102268.69;;;1.26;89.47
39265;BME280;42646;51.910;7.724;2023-01-28T03:56:08;102268.75;;;1.23;88.88
39265;BME280;42646;51.910;7.724;2023-01-28T03:58:44;102269.72;;;1.20;88.92
39265;BME280;42646;51.910;7.724;2023-01-28T04:01:20;102265.38;;;1.19;88.93
39265;BME280;42646;51.910;7.724;2023-01-28T04:03:50;102269.75;;;1.19;89.16
39265;BME280;42646;51.910;7.724;2023-01-28T04:06:26;102278.50;;;1.18;89.00
39265;BME280;42646;51.910;7.724;2023-01-28T04:09:09;102275.13;;;1.14;89.05
39265;BME280;42646;51.910;7.724;2023-01-28T04:12:02;102286.41;;;1.16;88.92
39265;BME280;42646;51.910;7.724;2023-01-28T04:14:35;102283.00;;;1.13;88.65
39265;BME280;42646;51.910;7.724;2023-01-28T04:17:15;102290.91;;;1.11;88.94
39265;BME280;42646;51.910;7.724;2023-01-28T04:20:10;102285.69;;;1.10;88.63
39265;BME280;42646;51.910;7.724;2023-01-28T04:22:43;102290.13;;;1.08;88.83
39265;BME280;42646;51.910;7.724;2023-01-28T04:25:13;102294.44;;;1.10;89.03
39265;BME280;42646;51.910;7.724;2023-01-28T04:27:42;102298.84;;;1.08;88.80
39265;BME280;42646;51.910;7.724;2023-01-28T04:30:16;102291.00;;;1.06;89.37
39265;BME280;42646;51.910;7.724;2023-01-28T04:33:04;102298.00;;;1.06;89.42
39265;BME280;42646;51.910;7.724;2023-01-28T04:35:50;102298.00;;;1.06;89.21
39265;BME280;42646;51.910;7.724;2023-01-28T04:38:25;102297.16;;;1.05;89.32
39265;BME280;42646;51.910;7.724;2023-01-28T04:41:04;102301.56;;;1.03;89.37
39265;BME280;42646;51.910;7.724;2023-01-28T04:43:34;102298.97;;;1.03;89.50
39265;BME280;42646;51.910;7.724;2023-01-28T04:46:29;102299.84;;;1.02;89.71
39265;BME280;42646;51.910;7.724;2023-01-28T04:49:05;102298.13;;;1.01;89.62
39265;BME280;42646;51.910;7.724;2023-01-28T04:52:10;102289.41;;;1.01;89.91
39265;BME280;42646;51.910;7.724;2023-01-28T04:55:05;102284.19;;;0.99;89.43
39265;BME280;42646;51.910;7.724;2023-01-28T04:57:34;102290.34;;;0.98;89.93
39265;BME280;42646;51.910;7.724;2023-01-28T05:00:06;102284.25;;;0.98;89.91
39265;BME280;42646;51.910;7.724;2023-01-28T05:02:35;102283.38;;;0.97;89.72
39265;BME280;42646;51.910;7.724;2023-01-28T05:05:03;102284.25;;;0.98;89.51
39265;BME280;42646;51.910;7.724;2023-01-28T05:07:42;102286.03;;;0.96;89.31
39265;BME280;42646;51.910;7.724;2023-01-28T05:10:11;102287.81;;;0.94;89.02
39265;BME280;42646;51.910;7.724;2023-01-28T05:12:39;102291.34;;;0.93;89.26
39265;BME280;42646;51.910;7.724;2023-01-28T05:15:08;102291.34;;;0.93;89.10
39265;BME280;42646;51.910;7.724;2023-01-28T05:17:37;102287.00;;;0.92;89.53
39265;BME280;42646;51.910;7.724;2023-01-28T05:20:05;102286.09;;;0.93;89.34
39265;BME280;42646;51.910;7.724;2023-01-28T05:22:34;102296.59;;;0.93;89.20
39265;BME280;42646;51.910;7.724;2023-01-28T05:25:25;102290.47;;;0.92;88.92
39265;BME280;42646;51.910;7.724;2023-01-28T05:27:56;102290.53;;;0.91;89.04
39265;BME280;42646;51.910;7.724;2023-01-28T05:30:25;102287.06;;;0.90;89.03
39265;BME280;42646;51.910;7.724;2023-01-28T05:32:54;102287.06;;;0.90;89.43
39265;BME280;42646;51.910;7.724;2023-01-28T05:35:23;102296.66;;;0.90;89.94
39265;BME280;42646;51.910;7.724;2023-01-28T05:37:52;102292.31;;;0.89;90.44
39265;BME280;42646;51.910;7.724;2023-01-28T05:40:21;102296.69;;;0.88;90.37
39265;BME280;42646;51.910;7.724;2023-01-28T05:42:51;102312.41;;;0.88;90.69
39265;BME280;42646;51.910;7.724;2023-01-28T05:45:31;102314.16;;;0.88;90.35
39265;BME280;42646;51.910;7.724;2023-01-28T05:48:04;102317.69;;;0.87;90.33
39265;BME280;42646;51.910;7.724;2023-01-28T05:51:08;102308.97;;;0.86;90.46
39265;BME280;42646;51.910;7.724;2023-01-28T05:53:43;102311.59;;;0.86;90.54
39265;BME280;42646;51.910;7.724;2023-01-28T05:56:12;102303.72;;;0.86;90.92
39265;BME280;42646;51.910;7.724;2023-01-28T05:58:42;102297.63;;;0.86;90.45
39265;BME280;42646;51.910;7.724;2023-01-28T06:01:10;102300.31;;;0.83;90.66
39265;BME280;42646;51.910;7.724;2023-01-28T06:03:46;102299.41;;;0.85;91.06
39265;BME280;42646;51.910;7.724;2023-01-28T06:06:16;102293.97;;;0.93;90.43
39265;BME280;42646;51.910;7.724;2023-01-28T06:08:45;102294.19;;;0.84;91.36
39265;BME280;42646;51.910;7.724;2023-01-28T06:11:20;102294.34;;;0.77;92.09
39265;BME280;42646;51.910;7.724;2023-01-28T06:13:54;102296.97;;;0.76;92.87
39265;BME280;42646;51.910;7.724;2023-01-28T06:16:30;102304.81;;;0.76;93.14
39265;BME280;42646;51.910;7.724;2023-01-28T06:19:07;102303.94;;;0.77;93.77
39265;BME280;42646;51.910;7.724;2023-01-28T06:21:35;102304.81;;;0.77;93.90
39265;BME280;42646;51.910;7.724;2023-01-28T06:24:04;102302.19;;;0.77;93.65
39265;BME280;42646;51.910;7.724;2023-01-28T06:26:32;102299.59;;;0.76;93.60
39265;BME280;42646;51.910;7.724;2023-01-28T06:29:25;102296.13;;;0.75;92.80
39265;BME280;42646;51.910;7.724;2023-01-28T06:31:53;102300.34;;;0.81;92.31
39265;BME280;42646;51.910;7.724;2023-01-28T06:34:22;102298.72;;;0.75;92.53
39265;BME280;42646;51.910;7.724;2023-01-28T06:36:51;102296.13;;;0.75;92.93
39265;BME280;42646;51.910;7.724;2023-01-28T06:39:19;102302.25;;;0.74;93.04
39265;BME280;42646;51.910;7.724;2023-01-28T06:41:47;102299.63;;;0.74;93.08
39265;BME280;42646;51.910;7.724;2023-01-28T06:44:15;102297.00;;;0.74;93.57
39265;BME280;42646;51.910;7.724;2023-01-28T06:46:45;102290.91;;;0.74;93.25
39265;BME280;42646;51.910;7.724;2023-01-28T06:49:14;102290.06;;;0.73;93.69
39265;BME280;42646;51.910;7.724;2023-01-28T06:51:42;102297.06;;;0.73;93.24
39265;BME280;42646;51.910;7.724;2023-01-28T06:54:10;102290.97;;;0.72;93.64
39265;BME280;42646;51.910;7.724;2023-01-28T06:56:39;102294.44;;;0.73;93.49
39265;BME280;42646;51.910;7.724;2023-01-28T06:59:09;102299.69;;;0.73;94.04
39265;BME280;42646;51.910;7.724;2023-01-28T07:01:37;102300.59;;;0.72;93.80
39265;BME280;42646;51.910;7.724;2023-01-28T07:04:07;102308.44;;;0.72;94.36
39265;BME280;42646;51.910;7.724;2023-01-28T07:06:35;102318.94;;;0.70;94.09
39265;BME280;42646;51.910;7.724;2023-01-28T07:09:03;102309.31;;;0.71;94.08
39265;BME280;42646;51.910;7.724;2023-01-28T07:11:31;102315.44;;;0.70;93.90
39265;BME280;42646;51.910;7.724;2023-01-28T07:13:59;102325.03;;;0.71;94.48
39265;BME280;42646;51.910;7.724;2023-01-28T07:17:17;102324.19;;;0.69;94.44
39265;BME280;42646;51.910;7.724;2023-01-28T07:19:49;102326.78;;;0.70;94.70
39265;BME280;42646;51.910;7.724;2023-01-28T07:22:19;102325.06;;;0.69;94.89
39265;BME280;42646;51.910;7.724;2023-01-28T07:24:46;102329.41;;;0.70;95.21
39265;BME280;42646;51.910;7.724;2023-01-28T07:27:14;102328.53;;;0.70;95.01
39265;BME280;42646;51.910;7.724;2023-01-28T07:29:42;102325.06;;;0.69;95.18
39265;BME280;42646;51.910;7.724;2023-01-28T07:32:10;102323.31;;;0.70;94.73
39265;BME280;42646;51.910;7.724;2023-01-28T07:35:05;102325.06;;;0.69;94.95
39265;BME280;42646;51.910;7.724;2023-01-28T07:37:34;102327.69;;;0.69;95.05
39265;BME280;42646;51.910;7.724;2023-01-28T07:40:02;102327.78;;;0.65;94.72
39265;BME280;42646;51.910;7.724;2023-01-28T07:42:34;102325.16;;;0.65;93.57
39265;BME280;42646;51.910;7.724;2023-01-28T07:45:05;102326.91;;;0.66;92.82
39265;BME280;42646;51.910;7.724;2023-01-28T07:47:34;102332.97;;;0.68;92.68
39265;BME280;42646;51.910;7.724;2023-01-28T07:50:07;102326.81;;;0.69;92.99
39265;BME280;42646;51.910;7.724;2023-01-28T07:52:36;102320.69;;;0.70;93.36
39265;BME280;42646;51.910;7.724;2023-01-28T07:55:10;102325.91;;;0.71;93.79
39265;BME280;42646;51.910;7.724;2023-01-28T07:57:47;102328.53;;;0.71;93.67
39265;BME280;42646;51.910;7.724;2023-01-28T08:00:16;102341.63;;;0.70;94.23
39265;BME280;42646;51.910;7.724;2023-01-28T08:02:44;102343.34;;;0.71;93.87
39265;BME280;42646;51.910;7.724;2023-01-28T08:05:17;102343.41;;;0.69;92.76
39265;BME280;42646;51.910;7.724;2023-01-28T08:07:46;102348.59;;;0.71;92.69
39265;BME280;42646;51.910;7.724;2023-01-28T08:10:15;102354.72;;;0.70;92.44
39265;BME280;42646;51.910;7.724;2023-01-28T08:12:52;102356.50;;;0.69;91.24
39265;BME280;42646;51.910;7.724;2023-01-28T08:15:23;102361.72;;;0.69;90.73
39265;BME280;42646;51.910;7.724;2023-01-28T08:17:52;102361.69;;;0.72;90.59
39265;BME280;42646;51.910;7.724;2023-01-28T08:20:23;102366.03;;;0.73;90.25
39265;BME280;42646;51.910;7.724;2023-01-28T08:22:50;102372.16;;;0.72;89.96
39265;BME280;42646;51.910;7.724;2023-01-28T08:25:23;102366.91;;;0.72;89.54
39265;BME280;42646;51.910;7.724;2023-01-28T08:27:50;102379.97;;;0.74;89.32
39265;BME280;42646;51.910;7.724;2023-01-28T08:30:18;102389.56;;;0.75;89.33
39265;BME280;42646;51.910;7.724;2023-01-28T08:32:46;102402.59;;;0.76;89.48
39265;BME280;42646;51.910;7.724;2023-01-28T08:35:14;102395.56;;;0.80;89.01
39265;BME280;42646;51.910;7.724;2023-01-28T08:37:45;102395.56;;;0.80;88.92
39265;BME280;42646;51.910;7.724;2023-01-28T08:40:13;102404.34;;;0.77;88.64
39265;BME280;42646;51.910;7.724;2023-01-28T08:42:46;102414.75;;;0.80;88.41
39265;BME280;42646;51.910;7.724;2023-01-28T08:45:17;102412.94;;;0.83;87.92
39265;BME280;42646;51.910;7.724;2023-01-28T08:47:48;102411.22;;;0.83;87.72
39265;BME280;42646;51.910;7.724;2023-01-28T08:50:16;102410.28;;;0.86;87.55
39265;BME280;42646;51.910;7.724;2023-01-28T08:52:47;102418.19;;;0.84;87.13
39265;BME280;42646;51.910;7.724;2023-01-28T08:55:16;102427.72;;;0.87;86.80
39265;BME280;42646;51.910;7.724;2023-01-28T08:57:44;102432.19;;;0.82;86.36
39265;BME280;42646;51.910;7.724;2023-01-28T09:00:13;102435.66;;;0.82;85.87
39265;BME280;42646;51.910;7.724;2023-01-28T09:02:42;102435.66;;;0.82;85.41
39265;BME280;42646;51.910;7.724;2023-01-28T09:05:13;102441.78;;;0.83;85.10
39265;BME280;42646;51.910;7.724;2023-01-28T09:07:41;102441.75;;;0.84;85.45
39265;BME280;42646;51.910;7.724;2023-01-28T09:10:10;102447.91;;;0.83;85.32
39265;BME280;42646;51.910;7.724;2023-01-28T09:12:40;102436.63;;;0.79;85.49
39265;BME280;42646;51.910;7.724;2023-01-28T09:15:10;102437.47;;;0.80;84.45
39265;BME280;42646;51.910;7.724;2023-01-28T09:17:38;102443.56;;;0.80;84.65
39265;BME280;42646;51.910;7.724;2023-01-28T09:20:07;102445.28;;;0.83;84.61
39265;BME280;42646;51.910;7.724;2023-01-28T09:22:35;102459.25;;;0.82;84.09
39265;BME280;42646;51.910;7.724;2023-01-28T09:25:07;102451.38;;;0.84;83.84
39265;BME280;42646;51.910;7.724;2023-01-28T09:27:37;102451.38;;;0.84;83.61
39265;BME280;42646;51.910;7.724;2023-01-28T09:30:32;102468.78;;;0.86;83.68
39265;BME280;42646;51.910;7.724;2023-01-28T09:33:03;102467.06;;;0.85;83.52
39265;BME280;42646;51.910;7.724;2023-01-28T09:35:32;102473.97;;;0.88;83.39
39265;BME280;42646;51.910;7.724;2023-01-28T09:38:01;102460.88;;;0.88;83.09
39265;BME280;42646;51.910;7.724;2023-01-28T09:40:33;102463.59;;;0.85;82.88
39265;BME280;42646;51.910;7.724;2023-01-28T09:46:05;102466.19;;;0.85;82.05
39265;BME280;42646;51.910;7.724;2023-01-28T09:48:36;102459.19;;;0.85;81.74
39265;BME280;42646;51.910;7.724;2023-01-28T09:51:09;102450.41;;;0.89;81.89
39265;BME280;42646;51.910;7.724;2023-01-28T09:53:43;102451.16;;;0.93;82.24
39265;BME280;42646;51.910;7.724;2023-01-28T09:56:21;102458.97;;;0.96;82.80
39265;BME280;42646;51.910;7.724;2023-01-28T09:58:51;102462.38;;;1.01;83.31
39265;BME280;42646;51.910;7.724;2023-01-28T10:01:35;102450.94;;;1.03;83.32
39265;BME280;42646;51.910;7.724;2023-01-28T10:04:15;102457.00;;;1.05;83.31
39265;BME280;42646;51.910;7.724;2023-01-28T10:06:57;102452.53;;;1.11;83.11
39265;BME280;42646;51.910;7.724;2023-01-28T10:09:34;102450.81;;;1.10;82.82
39265;BME280;42646;51.910;7.724;2023-01-28T10:12:19;102454.25;;;1.13;83.06
39265;BME280;42646;51.910;7.724;2023-01-28T10:14:57;102459.41;;;1.16;82.74
39265;BME280;42646;51.910;7.724;2023-01-28T10:17:39;102465.44;;;1.20;82.97
39265;BME280;42646;51.910;7.724;2023-01-28T10:20:17;102463.72;;;1.19;82.35
39265;BME280;42646;51.910;7.724;2023-01-28T10:22:51;102452.34;;;1.18;81.71
39265;BME280;42646;51.910;7.724;2023-01-28T10:25:27;102462.97;;;1.14;81.46
39265;BME280;42646;51.910;7.724;2023-01-28T10:28:00;102469.06;;;1.14;81.40
39265;BME280;42646;51.910;7.724;2023-01-28T10:30:31;102460.34;;;1.14;81.07
39265;BME280;42646;51.910;7.724;2023-01-28T10:33:05;102464.72;;;1.13;81.06
39265;BME280;42646;51.910;7.724;2023-01-28T10:35:40;102475.22;;;1.13;80.87
39265;BME280;42646;51.910;7.724;2023-01-28T10:38:13;102471.78;;;1.10;80.90
39265;BME280;42646;51.910;7.724;2023-01-28T10:40:43;102470.91;;;1.09;80.69
39265;BME280;42646;51.910;7.724;2023-01-28T10:43:15;102477.88;;;1.10;80.63
39265;BME280;42646;51.910;7.724;2023-01-28T10:45:54;102483.94;;;1.12;80.95
39265;BME280;42646;51.910;7.724;2023-01-28T10:48:27;102479.56;;;1.14;80.65
39265;BME280;42646;51.910;7.724;2023-01-28T10:50:59;102484.78;;;1.14;80.89
39265;BME280;42646;51.910;7.724;2023-01-28T10:53:35;102472.50;;;1.16;80.97
39265;BME280;42646;51.910;7.724;2023-01-28T10:56:04;102471.66;;;1.16;81.25
39265;BME280;42646;51.910;7.724;2023-01-28T10:59:02;102473.38;;;1.17;81.23
39265;BME280;42646;51.910;7.724;2023-01-28T11:01:41;102483.94;;;1.14;81.12
39265;BME280;42646;51.910;7.724;2023-01-28T11:04:17;102487.38;;;1.16;81.02
39265;BME280;42646;51.910;7.724;2023-01-28T11:06:57;102483.03;;;1.15;81.19
39265;BME280;42646;51.910;7.724;2023-01-28T11:09:27;102481.19;;;1.20;80.09
39265;BME280;42646;51.910;7.724;2023-01-28T11:12:11;102472.56;;;1.15;79.90
39265;BME280;42646;51.910;7.724;2023-01-28T11:14:48;102475.16;;;1.15;80.23
39265;BME280;42646;51.910;7.724;2023-01-28T11:17:22;102472.50;;;1.16;79.89
39265;BME280;42646;51.910;7.724;2023-01-28T11:19:54;102461.88;;;1.22;79.12
39265;BME280;42646;51.910;7.724;2023-01-28T11:22:29;102461.22;;;1.14;78.83
39265;BME280;42646;51.910;7.724;2023-01-28T11:24:59;102462.97;;;1.12;79.14
39265;BME280;42646;51.910;7.724;2023-01-28T11:27:31;102458.50;;;1.17;78.66
39265;BME280;42646;51.910;7.724;2023-01-28T11:30:00;102454.16;;;1.16;78.48
39265;BME280;42646;51.910;7.724;2023-01-28T11:32:32;102448.88;;;1.18;78.26
39265;BME280;42646;51.910;7.724;2023-01-28T11:35:04;102451.34;;;1.25;78.09
39265;BME280;42646;51.910;7.724;2023-01-28T11:37:47;102441.63;;;1.30;78.37
39265;BME280;42646;51.910;7.724;2023-01-28T11:40:17;102437.09;;;1.36;78.21
39265;BME280;42646;51.910;7.724;2023-01-28T11:42:50;102426.53;;;1.40;76.62
39265;BME280;42646;51.910;7.724;2023-01-28T11:45:26;102416.97;;;1.38;76.65
39265;BME280;42646;51.910;7.724;2023-01-28T11:48:23;102416.22;;;1.32;76.61
39265;BME280;42646;51.910;7.724;2023-01-28T11:51:00;102403.97;;;1.33;76.98
39265;BME280;42646;51.910;7.724;2023-01-28T11:53:39;102410.13;;;1.32;77.72
39265;BME280;42646;51.910;7.724;2023-01-28T11:56:18;102419.50;;;1.41;77.99
39265;BME280;42646;51.910;7.724;2023-01-28T11:58:58;102409.78;;;1.46;77.95
39265;BME280;42646;51.910;7.724;2023-01-28T12:01:34;102405.50;;;1.43;77.83
39265;BME280;42646;51.910;7.724;2023-01-28T12:04:22;102409.81;;;1.44;78.05
39265;BME280;42646;51.910;7.724;2023-01-28T12:07:03;102417.50;;;1.52;78.12
39265;BME280;42646;51.910;7.724;2023-01-28T12:09:41;102410.19;;;1.65;77.86
39265;BME280;42646;51.910;7.724;2023-01-28T12:12:46;102405.66;;;1.71;77.02
39265;BME280;42646;51.910;7.724;2023-01-28T12:15:25;102388.38;;;1.63;76.58
39265;BME280;42646;51.910;7.724;2023-01-28T12:18:14;102364.09;;;1.56;77.03
39265;BME280;42646;51.910;7.724;2023-01-28T12:20:51;102348.88;;;1.69;76.68
39265;BME280;42646;51.910;7.724;2023-01-28T12:23:36;102339.19;;;1.72;76.86
39265;BME280;42646;51.910;7.724;2023-01-28T12:26:09;102335.66;;;1.73;76.94
39265;BME280;42646;51.910;7.724;2023-01-28T12:28:49;102330.69;;;1.63;77.55
39265;BME280;42646;51.910;7.724;2023-01-28T12:31:35;102322.88;;;1.61;77.46
39265;BME280;42646;51.910;7.724;2023-01-28T12:34:22;102305.69;;;1.49;77.51
39265;BME280;42646;51.910;7.724;2023-01-28T12:37:01;102303.88;;;1.51;77.29
39265;BME280;42646;51.910;7.724;2023-01-28T12:39:39;102300.38;;;1.51;77.50
39265;BME280;42646;51.910;7.724;2023-01-28T12:42:19;102311.69;;;1.54;77.67
39265;BME280;42646;51.910;7.724;2023-01-28T12:44:55;102322.22;;;1.51;77.89
39265;BME280;42646;51.910;7.724;2023-01-28T12:47:32;102318.69;;;1.52;78.26
39265;BME280;42646;51.910;7.724;2023-01-28T12:50:03;102326.72;;;1.46;78.51
39265;BME280;42646;51.910;7.724;2023-01-28T12:52:38;102334.63;;;1.45;78.78
39265;BME280;42646;51.910;7.724;2023-01-28T12:55:14;102334.31;;;1.57;79.08
39265;BME280;42646;51.910;7.724;2023-01-28T12:57:43;102326.22;;;1.66;78.27
39265;BME280;42646;51.910;7.724;2023-01-28T13:00:22;102318.59;;;1.57;78.85
39265;BME280;42646;51.910;7.724;2023-01-28T13:02:57;102310.84;;;1.52;78.81
39265;BME280;42646;51.910;7.724;2023-01-28T13:05:36;102316.78;;;1.59;78.44
39265;BME280;42646;51.910;7.724;2023-01-28T13:08:10;102307.97;;;1.62;78.19
39265;BME280;42646;51.910;7.724;2023-01-28T13:10:44;102310.03;;;1.50;78.36
39265;BME280;42646;51.910;7.724;2023-01-28T13:13:16;102324.00;;;1.51;78.76
39265;BME280;42646;51.910;7.724;2023-01-28T13:15:45;102330.16;;;1.50;78.80
39265;BME280;42646;51.910;7.724;2023-01-28T13:18:32;102333.56;;;1.52;78.77
39265;BME280;42646;51.910;7.724;2023-01-28T13:21:02;102329.50;;;1.74;77.50
39265;BME280;42646;51.910;7.724;2023-01-28T13:23:39;102340.38;;;1.59;76.77
39265;BME280;42646;51.910;7.724;2023-01-28T13:26:25;102348.41;;;1.53;77.23
39265;BME280;42646;51.910;7.724;2023-01-28T13:29:08;102355.41;;;1.52;77.75
39265;BME280;42646;51.910;7.724;2023-01-28T13:31:45;102351.00;;;1.54;78.09
39265;BME280;42646;51.910;7.724;2023-01-28T13:34:27;102351.81;;;1.56;78.61
39265;BME280;42646;51.910;7.724;2023-01-28T13:37:03;102345.63;;;1.59;78.79
39265;BME280;42646;51.910;7.724;2023-01-28T13:39:34;102357.72;;;1.66;78.85
39265;BME280;42646;51.910;7.724;2023-01-28T13:45:22;102373.44;;;1.66;78.89
39265;BME280;42646;51.910;7.724;2023-01-28T13:47:54;102352.38;;;1.69;78.72